KYKN/YKN METAR and TAF weather

Enter ICAO airport designator
Station Type Date Time Source
KYKN METAR 2020/09/18 06:56 UTC NOAA

KYKN 180656Z AUTO 09010G17KT 10SM FEW050 OVC070 13/04 A3031 RMK AO2 SLP273 T01330039


Station Type Date Time Source
KYKN Decoded METAR 2020/09/18 06:56 UTC NOAA

Yankton, Chan Gurney Municipal Airport, SD, United States (KYKN) 42-55N 097-23W
Sep 18, 2020 - 02:56 AM EDT / 2020.09.18 0656 UTC
Wind: from the E (090 degrees) at 12 MPH (10 KT) gusting to 20 MPH (17 KT):0
Visibility: 10 mile(s):0
Sky conditions: overcast
Temperature: 55.9 F (13.3 C)
Dew Point: 39.0 F (3.9 C)
Relative Humidity: 52%
Pressure (altimeter): 30.31 in. Hg (1026 hPa)
ob: KYKN 180656Z AUTO 09010G17KT 10SM FEW050 OVC070 13/04 A3031 RMK AO2 SLP273 T01330039
cycle: 7

Station Type Date Time Source
KYKN TAF UTC NOAA

Error!

Example: see airport list